Time;durP1;ratioP1;P1;durP2;ratioP2;P2;SDS_P1;SDS_P2;PMS_P1;PMS_P2;Temp;Humidity;BMP_temperature;BMP_pressure;BME280_temperature;BME280_humidity;BME280_pressure;Samples;Min_cycle;Max_cycle;Signal;HPM_P1;HPM_P2
2022/12/25 00:00:12;;;;;;;352.70;41.33;;;6.60;99.90;;;;;;5095577;28;20067;-74
2022/12/25 00:02:38;;;;;;;304.90;40.30;;;6.80;99.90;;;;;;5112332;28;20401;-73
2022/12/25 00:05:05;;;;;;;287.85;40.33;;;6.70;99.90;;;;;;5113894;28;20140;-74
2022/12/25 00:07:31;;;;;;;388.77;45.70;;;6.70;99.90;;;;;;5112853;28;20045;-73
2022/12/25 00:09:57;;;;;;;246.73;38.25;;;6.70;99.90;;;;;;5112261;28;20070;-73
2022/12/25 00:12:23;;;;;;;241.85;38.35;;;6.20;99.90;;;;;;5112338;28;20043;-74
2022/12/25 00:14:48;;;;;;;295.88;41.35;;;6.50;99.90;;;;;;5112156;28;20043;-73
2022/12/25 00:17:14;;;;;;;199.73;34.97;;;6.70;99.90;;;;;;5095048;28;20057;-73
2022/12/25 00:19:40;;;;;;;199.20;35.88;;;6.20;99.90;;;;;;5113320;28;20056;-73
2022/12/25 00:22:05;;;;;;;156.10;30.73;;;6.40;99.90;;;;;;5095102;28;20109;-72
2022/12/25 00:24:31;;;;;;;172.88;33.72;;;6.30;99.90;;;;;;5113263;27;20146;-74
2022/12/25 00:26:57;;;;;;;171.75;35.17;;;6.20;99.90;;;;;;5112159;28;20054;-73
2022/12/25 00:29:22;;;;;;;135.35;30.17;;;6.10;99.90;;;;;;5113163;28;20097;-73
2022/12/25 00:31:48;;;;;;;136.63;27.92;;;6.40;99.90;;;;;;5111552;28;20128;-73
2022/12/25 00:34:14;;;;;;;152.70;30.08;;;6.20;99.90;;;;;;5112715;28;20078;-73
2022/12/25 00:36:40;;;;;;;142.85;30.45;;;6.20;99.90;;;;;;5113077;28;20056;-73
2022/12/25 00:39:06;;;;;;;142.80;30.30;;;6.00;99.90;;;;;;5111942;28;20071;-73
2022/12/25 00:44:16;;;;;;;128.70;28.48;;;6.00;99.90;;;;;;5112923;28;20130;-73
2022/12/25 00:46:42;;;;;;;126.88;28.27;;;;;;;;;;5111281;28;20051;-73
2022/12/25 00:49:09;;;;;;;136.65;28.80;;;6.10;99.90;;;;;;5111727;28;20052;-73
2022/12/25 00:51:35;;;;;;;114.28;28.10;;;6.10;99.90;;;;;;5112768;28;20047;-73
2022/12/25 00:54:01;;;;;;;131.65;29.08;;;5.80;99.90;;;;;;5112627;28;20434;-73
2022/12/25 00:56:26;;;;;;;137.88;31.00;;;6.00;99.90;;;;;;5112671;28;20051;-73
2022/12/25 00:58:53;;;;;;;124.82;28.73;;;5.90;99.90;;;;;;5112696;28;20127;-72
2022/12/25 01:01:18;;;;;;;;;;;6.10;99.90;;;;;;5112801;28;20446;-73
2022/12/25 01:03:44;;;;;;;110.90;24.77;;;5.70;99.90;;;;;;5111360;28;19919;-72
2022/12/25 01:06:11;;;;;;;130.00;27.35;;;5.90;99.90;;;;;;5112544;28;20130;-73
2022/12/25 01:10:20;;;;;;;134.93;27.63;;;5.80;99.90;;;;;;5112487;28;20043;-73
2022/12/25 01:11:25;;;;;;;154.10;28.60;;;6.10;99.90;;;;;;5112463;28;20509;-73
2022/12/25 01:13:51;;;;;;;125.95;26.17;;;6.10;99.90;;;;;;5112120;28;20087;-74
2022/12/25 01:16:17;;;;;;;127.47;26.50;;;5.70;99.90;;;;;;5111304;28;20504;-73
2022/12/25 01:18:43;;;;;;;130.48;26.92;;;6.00;99.90;;;;;;5112398;28;20434;-73
2022/12/25 01:21:10;;;;;;;131.80;26.60;;;5.60;99.90;;;;;;5112333;28;20101;-73
2022/12/25 01:23:37;;;;;;;139.63;26.60;;;5.70;99.90;;;;;;5112006;28;20440;-73
2022/12/25 01:26:06;;;;;;;121.75;26.58;;;;;;;;;;5111278;28;20048;-74
2022/12/25 01:28:32;;;;;;;129.38;25.85;;;5.50;99.90;;;;;;5111722;28;20502;-74
2022/12/25 01:30:58;;;;;;;116.05;25.67;;;6.00;99.90;;;;;;5111280;28;20365;-73
2022/12/25 01:33:24;;;;;;;118.32;25.65;;;6.00;99.90;;;;;;5110951;28;20055;-74
2022/12/25 01:35:50;;;;;;;129.63;25.60;;;5.60;99.90;;;;;;5110915;28;20154;-73
2022/12/25 01:38:15;;;;;;;168.15;27.25;;;5.80;99.90;;;;;;5094221;28;20051;-74
2022/12/25 01:40:41;;;;;;;122.35;25.63;;;5.50;99.90;;;;;;5112464;28;20509;-73
2022/12/25 01:43:25;;;;;;;121.85;26.52;;;5.80;99.90;;;;;;5111981;28;20392;-73
2022/12/25 01:45:51;;;;;;;120.60;25.30;;;5.40;99.90;;;;;;5094359;28;20051;-73
2022/12/25 01:48:28;;;;;;;135.75;26.60;;;5.30;99.90;;;;;;5112264;28;20039;-74
2022/12/25 01:51:04;;;;;;;146.38;27.88;;;;;;;;;;5112507;28;20044;-73
2022/12/25 01:53:30;;;;;;;;;;;5.60;99.90;;;;;;5112708;28;20044;-74
2022/12/25 01:56:06;;;;;;;163.60;28.13;;;6.10;99.90;;;;;;5112107;28;20332;-74
2022/12/25 01:58:32;;;;;;;143.90;27.88;;;5.90;99.90;;;;;;5110822;28;20491;-74
2022/12/25 02:00:58;;;;;;;166.63;28.77;;;5.90;99.90;;;;;;5112066;28;20415;-73
2022/12/25 02:03:24;;;;;;;174.80;32.72;;;5.60;99.90;;;;;;5110726;28;20053;-74
2022/12/25 02:05:50;;;;;;;169.85;32.20;;;6.10;99.90;;;;;;5111979;28;20057;-73
2022/12/25 02:08:18;;;;;;;202.98;33.22;;;5.90;99.90;;;;;;5110636;28;20055;-73
2022/12/25 02:10:44;;;;;;;214.63;34.85;;;6.20;99.90;;;;;;5093914;28;20127;-73
2022/12/25 02:13:13;;;;;;;222.57;37.03;;;6.30;99.90;;;;;;5111567;28;20118;-73
2022/12/25 02:15:52;;;;;;;200.50;38.75;;;6.20;99.90;;;;;;5111942;28;20131;-73
2022/12/25 02:18:43;;;;;;;294.42;39.30;;;6.20;99.90;;;;;;5110616;28;20151;-73
2022/12/25 02:21:37;;;;;;;240.77;38.00;;;6.20;99.90;;;;;;5111840;28;20059;-74
2022/12/25 02:24:26;;;;;;;250.73;39.40;;;6.30;99.90;;;;;;5111795;28;20082;-74
2022/12/25 02:26:57;;;;;;;228.98;36.53;;;6.50;99.90;;;;;;5110502;28;20050;-73
2022/12/25 02:29:46;;;;;;;205.48;37.63;;;6.30;99.90;;;;;;5110716;28;20404;-73
2022/12/25 02:32:32;;;;;;;188.20;36.00;;;;;;;;;;5115431;28;20040;-73
2022/12/25 02:35:14;;;;;;;226.32;39.10;;;6.70;99.90;;;;;;5107596;28;20063;-73
2022/12/25 02:38:15;;;;;;;230.23;41.40;;;6.70;99.90;;;;;;5115338;28;20052;-73
2022/12/25 02:40:48;;;;;;;200.55;38.40;;;6.90;99.90;;;;;;5091423;28;20056;-73
2022/12/25 03:08:40;;;;;;;156.00;39.72;;;7.20;99.90;;;;;;5114808;28;20622;-72
2022/12/25 03:16:49;;;;;;;188.23;41.15;;;7.40;99.90;;;;;;5114594;28;20046;-74
2022/12/25 03:16:52;;;;;;;184.40;40.47;;;7.40;99.90;;;;;;5114270;28;20070;-73
2022/12/25 03:27:41;;;;;;;164.13;39.63;;;7.40;99.90;;;;;;5114391;28;20058;-75
2022/12/25 03:33:11;;;;;;;169.05;41.95;;;7.40;99.90;;;;;;5114285;28;20054;-74
2022/12/25 03:35:47;;;;;;;163.50;39.35;;;7.70;99.90;;;;;;5114259;28;20075;-75
2022/12/25 03:45:41;;;;;;;168.23;40.20;;;7.40;99.90;;;;;;5114413;28;20063;-74
2022/12/25 04:37:36;;;;;;;191.25;42.88;;;8.00;99.90;;;;;;5112733;28;20062;-74
2022/12/25 04:40:01;;;;;;;196.00;43.30;;;8.00;99.90;;;;;;5111683;28;20047;-75
2022/12/25 04:42:27;;;;;;;199.68;44.08;;;7.90;99.90;;;;;;5111861;28;20142;-75
2022/12/25 04:44:53;;;;;;;190.50;42.30;;;8.20;99.90;;;;;;5112949;28;20055;-75
2022/12/25 04:47:18;;;;;;;200.43;43.78;;;7.90;99.90;;;;;;5112815;28;20050;-75
2022/12/25 04:49:44;;;;;;;190.18;40.47;;;8.10;99.90;;;;;;5094787;28;20130;-75
2022/12/25 04:52:10;;;;;;;194.85;41.75;;;8.20;99.90;;;;;;5111097;28;20100;-75
2022/12/25 04:54:37;;;;;;;197.95;40.92;;;8.10;99.90;;;;;;5112490;28;20494;-74
2022/12/25 04:57:03;;;;;;;197.45;41.70;;;8.10;99.90;;;;;;5112711;28;20568;-75
2022/12/25 04:59:28;;;;;;;221.88;42.17;;;8.10;99.90;;;;;;5112667;28;20051;-74
2022/12/25 05:01:54;;;;;;;231.70;42.53;;;8.60;99.90;;;;;;5112562;28;20135;-74
2022/12/25 05:04:20;;;;;;;217.20;42.45;;;8.20;99.90;;;;;;5111582;28;20079;-75
2022/12/25 05:06:45;;;;;;;214.30;41.30;;;8.50;99.90;;;;;;5112319;28;20043;-75
2022/12/25 05:09:11;;;;;;;229.90;43.10;;;7.90;99.90;;;;;;5111342;28;20385;-75
2022/12/25 05:11:37;;;;;;;257.33;42.50;;;8.30;99.90;;;;;;5111382;28;20055;-75
2022/12/25 05:14:02;;;;;;;224.07;41.05;;;8.40;99.90;;;;;;5112387;28;20047;-74
2022/12/25 05:16:28;;;;;;;213.40;40.90;;;8.50;99.90;;;;;;5111462;28;20103;-74
2022/12/25 05:18:54;;;;;;;198.85;39.40;;;8.40;99.90;;;;;;5111112;28;20051;-74
2022/12/25 05:21:19;;;;;;;221.63;39.70;;;8.50;99.90;;;;;;5112170;28;20039;-74
2022/12/25 05:23:50;;;;;;;210.05;40.85;;;8.40;99.90;;;;;;5112310;28;20126;-74
2022/12/25 05:26:18;;;;;;;196.70;39.42;;;8.40;99.90;;;;;;5112379;28;20468;-74
2022/12/25 05:28:44;;;;;;;209.80;39.75;;;8.50;99.90;;;;;;5111253;28;20126;-74
2022/12/25 05:31:10;;;;;;;200.75;39.20;;;8.40;99.90;;;;;;5112361;28;20184;-73
2022/12/25 05:33:36;;;;;;;202.98;39.13;;;8.60;99.90;;;;;;5111021;28;20047;-73
2022/12/25 05:36:06;;;;;;;201.63;40.90;;;8.60;99.90;;;;;;5112153;28;20051;-72
2022/12/25 05:38:32;;;;;;;182.50;40.33;;;8.30;99.90;;;;;;5112427;28;20506;-74
2022/12/25 05:40:58;;;;;;;196.40;38.88;;;8.60;99.90;;;;;;5112479;28;20484;-74
2022/12/25 05:43:25;;;;;;;177.35;40.25;;;8.30;99.90;;;;;;5112309;28;20062;-75
2022/12/25 05:45:50;;;;;;;;;;;8.50;99.90;;;;;;5111543;28;20403;-74
2022/12/25 05:48:16;;;;;;;180.93;36.30;;;8.70;99.90;;;;;;5110917;28;20011;-74
2022/12/25 05:50:42;;;;;;;169.10;38.65;;;8.30;99.90;;;;;;5110601;28;20048;-75
2022/12/25 05:53:10;;;;;;;166.57;36.88;;;8.50;99.90;;;;;;5112047;28;20058;-74
2022/12/25 05:55:38;;;;;;;179.00;39.35;;;8.70;99.90;;;;;;5111999;28;20044;-75
2022/12/25 05:58:05;;;;;;;168.75;39.13;;;8.60;99.90;;;;;;5110374;28;20496;-75
2022/12/25 06:00:32;;;;;;;177.52;38.67;;;8.70;99.90;;;;;;5112064;28;20050;-74
2022/12/25 06:02:57;;;;;;;;;;;8.60;99.90;;;;;;5112413;28;20048;-74
2022/12/25 06:05:23;;;;;;;165.55;37.22;;;8.70;99.90;;;;;;5113338;28;20248;-74
2022/12/25 06:07:49;;;;;;;181.25;38.97;;;8.10;99.90;;;;;;5115863;28;20097;-74
2022/12/25 06:10:14;;;;;;;173.77;38.28;;;8.60;99.90;;;;;;5097840;28;20047;-73
2022/12/25 06:12:40;;;;;;;166.85;40.28;;;8.60;99.90;;;;;;5114596;28;20138;-74
2022/12/25 06:15:07;;;;;;;165.23;38.65;;;8.90;99.90;;;;;;5115814;28;20043;-75
2022/12/25 06:17:32;;;;;;;180.25;37.92;;;8.80;99.90;;;;;;5115730;28;20097;-74
2022/12/25 06:19:58;;;;;;;174.48;39.00;;;8.50;99.90;;;;;;5114135;28;20101;-74
2022/12/25 06:22:31;;;;;;;159.43;38.17;;;8.60;99.90;;;;;;5115329;28;20051;-74
2022/12/25 06:24:57;;;;;;;188.43;39.45;;;8.90;99.90;;;;;;5115947;28;20100;-74
2022/12/25 06:27:23;;;;;;;175.52;39.10;;;8.70;99.90;;;;;;5115647;28;20150;-74
2022/12/25 06:29:49;;;;;;;172.68;38.17;;;8.60;99.90;;;;;;5115489;28;20047;-74
2022/12/25 06:32:15;;;;;;;204.07;40.42;;;8.50;99.90;;;;;;5115406;28;20360;-74
2022/12/25 06:34:40;;;;;;;185.88;38.60;;;8.50;99.90;;;;;;5113645;28;20087;-74
2022/12/25 06:37:06;;;;;;;174.38;36.30;;;8.70;99.90;;;;;;5115388;28;20062;-75
2022/12/25 06:39:32;;;;;;;193.13;39.95;;;8.80;99.90;;;;;;5114002;28;20097;-75
2022/12/25 06:41:58;;;;;;;191.27;40.75;;;8.60;99.90;;;;;;5115200;28;20049;-75
2022/12/25 06:44:24;;;;;;;181.30;38.33;;;9.00;99.90;;;;;;5113943;28;20124;-75
2022/12/25 06:46:52;;;;;;;185.80;39.50;;;8.70;99.90;;;;;;5114155;28;20052;-76
2022/12/25 06:49:18;;;;;;;193.10;40.80;;;8.60;99.90;;;;;;5115158;28;20399;-75
2022/12/25 06:51:44;;;;;;;199.32;40.47;;;8.60;99.90;;;;;;5097105;28;20044;-75
2022/12/25 06:54:09;;;;;;;190.88;39.53;;;8.50;99.90;;;;;;5114928;28;20043;-75
2022/12/25 06:56:35;;;;;;;187.48;38.80;;;8.70;99.90;;;;;;5115068;28;20135;-74
2022/12/25 06:59:04;;;;;;;178.68;37.88;;;8.30;99.90;;;;;;5114927;28;20050;-74
2022/12/25 07:01:52;;;;;;;181.60;38.63;;;8.50;99.90;;;;;;5114917;27;20047;-74
2022/12/25 07:04:39;;;;;;;165.82;37.55;;;8.50;99.90;;;;;;5113808;28;20415;-75
2022/12/25 07:07:06;;;;;;;;;;;9.00;99.90;;;;;;5115139;28;20047;-75
2022/12/25 07:09:31;;;;;;;161.40;37.55;;;8.70;99.90;;;;;;5113759;28;19928;-74
2022/12/25 07:12:15;;;;;;;154.88;37.42;;;8.80;99.90;;;;;;5114593;28;20372;-74
2022/12/25 07:14:40;;;;;;;156.00;35.92;;;8.80;99.90;;;;;;5114658;28;20480;-74
2022/12/25 07:17:06;;;;;;;160.40;37.53;;;8.80;99.90;;;;;;5114147;28;20050;-74
2022/12/25 07:19:32;;;;;;;153.20;36.35;;;8.90;99.90;;;;;;5114586;28;20043;-74
2022/12/25 07:21:57;;;;;;;170.60;37.88;;;8.40;99.90;;;;;;5114832;28;20051;-74
2022/12/25 07:24:23;;;;;;;157.70;34.88;;;9.20;99.90;;;;;;5114196;28;20436;-74
2022/12/25 07:26:50;;;;;;;153.85;38.38;;;8.90;99.90;;;;;;5113455;28;20119;-74
2022/12/25 07:29:18;;;;;;;152.82;35.97;;;8.60;99.90;;;;;;5113339;28;20050;-74
2022/12/25 07:31:44;;;;;;;150.30;37.53;;;8.80;99.90;;;;;;5113088;28;20047;-73
2022/12/25 07:34:09;;;;;;;127.25;35.97;;;9.00;99.90;;;;;;5114289;28;20475;-73
2022/12/25 07:36:35;;;;;;;153.15;37.55;;;8.90;99.90;;;;;;5113570;28;20056;-73
2022/12/25 07:39:01;;;;;;;141.65;37.58;;;8.80;99.90;;;;;;5114278;28;20483;-73
2022/12/25 07:41:26;;;;;;;137.80;35.75;;;9.10;99.90;;;;;;5112865;28;20049;-73
2022/12/25 07:43:53;;;;;;;129.27;34.58;;;8.50;99.90;;;;;;5114162;28;20044;-73
2022/12/25 07:46:20;;;;;;;137.98;36.67;;;9.30;99.90;;;;;;5112498;28;20044;-73
2022/12/25 07:48:46;;;;;;;152.25;36.17;;;8.80;99.90;;;;;;5112990;28;20377;-73
2022/12/25 07:51:13;;;;;;;118.50;36.20;;;9.00;99.90;;;;;;5113968;28;20081;-73
2022/12/25 07:53:39;;;;;;;132.25;35.85;;;9.00;99.90;;;;;;5112559;28;20075;-73
2022/12/25 07:56:14;;;;;;;135.63;33.45;;;8.80;99.90;;;;;;5113874;28;20501;-73
2022/12/25 07:58:40;;;;;;;145.13;34.72;;;8.80;99.90;;;;;;5113828;28;20051;-73
2022/12/25 08:01:07;;;;;;;;;;;9.20;99.90;;;;;;5113905;28;20056;-73
2022/12/25 08:03:33;;;;;;;130.10;34.22;;;8.90;99.90;;;;;;5113749;28;19945;-73
2022/12/25 08:06:05;;;;;;;149.07;35.08;;;8.90;99.90;;;;;;5095597;28;20051;-73
2022/12/25 08:08:31;;;;;;;142.43;33.45;;;8.90;99.90;;;;;;5129749;27;20091;-73
2022/12/25 08:10:57;;;;;;;139.27;33.70;;;8.60;99.90;;;;;;5113542;28;20078;-73
2022/12/25 08:13:23;;;;;;;107.40;32.28;;;9.40;99.90;;;;;;5112178;28;20089;-72
2022/12/25 08:15:48;;;;;;;129.10;33.33;;;9.00;99.90;;;;;;5095214;28;20426;-72
2022/12/25 08:18:14;;;;;;;135.45;33.17;;;8.90;99.90;;;;;;5111671;28;20044;-73
2022/12/25 08:20:40;;;;;;;123.95;31.63;;;8.90;99.90;;;;;;5113109;28;20047;-73
2022/12/25 08:23:06;;;;;;;114.65;32.92;;;8.80;99.90;;;;;;5111973;28;20052;-72
2022/12/25 08:25:31;;;;;;;112.50;31.45;;;9.00;99.90;;;;;;5112024;28;20093;-72
2022/12/25 08:28:00;;;;;;;117.20;33.72;;;9.10;99.90;;;;;;5112682;28;20135;-72
2022/12/25 08:30:26;;;;;;;102.82;31.73;;;9.00;99.90;;;;;;5112866;28;20108;-73
2022/12/25 08:32:52;;;;;;;;;;;9.30;99.90;;;;;;5113555;28;20115;-72
2022/12/25 08:35:17;;;;;;;93.93;29.20;;;9.10;99.90;;;;;;5112685;28;20427;-72
2022/12/25 08:37:43;;;;;;;99.03;28.83;;;9.30;99.90;;;;;;5113102;27;20050;-72
2022/12/25 08:40:09;;;;;;;93.68;30.48;;;9.30;99.90;;;;;;5112986;28;20388;-71
2022/12/25 08:42:35;;;;;;;102.50;29.27;;;8.90;99.90;;;;;;5129006;27;20086;-71
2022/12/25 08:45:00;;;;;;;84.20;27.55;;;9.30;99.90;;;;;;5084420;28;20094;-71
2022/12/25 08:47:26;;;;;;;84.25;28.17;;;9.30;99.90;;;;;;5091474;28;20482;-71
2022/12/25 08:49:52;;;;;;;85.55;28.05;;;9.20;99.90;;;;;;5092456;28;20396;-71
2022/12/25 08:52:17;;;;;;;84.15;27.00;;;8.90;99.90;;;;;;5091330;28;20044;-70
2022/12/25 08:54:45;;;;;;;78.68;25.75;;;9.30;99.90;;;;;;5092123;28;20182;-71
2022/12/25 08:57:11;;;;;;;79.80;26.27;;;9.30;99.90;;;;;;5092344;28;20048;-71
2022/12/25 08:59:37;;;;;;;75.53;26.17;;;8.70;99.90;;;;;;5092098;28;20055;-71
2022/12/25 09:02:03;;;;;;;78.13;24.92;;;9.40;99.90;;;;;;5087372;28;20044;-71
2022/12/25 09:04:29;;;;;;;78.95;25.98;;;9.40;99.90;;;;;;5089458;28;20132;-71
2022/12/25 09:06:55;;;;;;;65.03;24.25;;;8.90;99.90;;;;;;5090638;28;20126;-71
2022/12/25 09:09:25;;;;;;;71.45;24.75;;;9.00;99.90;;;;;;5089713;28;20044;-71
2022/12/25 09:11:51;;;;;;;63.63;24.70;;;9.40;99.90;;;;;;5091609;28;20052;-71
2022/12/25 09:14:16;;;;;;;69.97;25.55;;;9.20;99.90;;;;;;5056231;28;20044;-71
2022/12/25 09:16:42;;;;;;;64.20;23.25;;;9.60;99.90;;;;;;5073344;28;20140;-71
2022/12/25 09:19:08;;;;;;;59.53;24.77;;;9.00;99.90;;;;;;5091628;28;20054;-71
2022/12/25 09:21:35;;;;;;;71.18;24.65;;;9.20;99.90;;;;;;5091120;28;20059;-72
2022/12/25 09:24:04;;;;;;;66.60;24.08;;;9.30;99.90;;;;;;5090407;28;20052;-71
2022/12/25 09:26:29;;;;;;;64.55;24.52;;;8.80;99.90;;;;;;5074421;28;20459;-71
2022/12/25 09:28:55;;;;;;;60.55;24.52;;;9.20;99.90;;;;;;5092404;28;20079;-71
2022/12/25 09:31:22;;;;;;;61.78;25.05;;;8.70;99.90;;;;;;5092147;28;20044;-71
2022/12/25 09:33:48;;;;;;;64.88;23.50;;;9.50;99.90;;;;;;5089398;28;20043;-73
2022/12/25 09:36:14;;;;;;;59.90;23.67;;;8.70;99.90;;;;;;5088881;28;20054;-70
2022/12/25 09:38:40;;;;;;;51.88;24.02;;;9.30;99.90;;;;;;5086912;28;20052;-70
2022/12/25 09:41:26;;;;;;;47.63;21.70;;;9.50;99.90;;;;;;5094088;28;20816;-69
2022/12/25 09:44:02;;;;;;;58.28;24.23;;;9.40;99.90;;;;;;5093242;28;20051;-70
2022/12/25 09:46:42;;;;;;;57.05;21.35;;;9.20;99.90;;;;;;5093732;28;20054;-72
2022/12/25 09:49:13;;;;;;;59.20;21.55;;;9.30;99.90;;;;;;5093695;28;20158;-71
2022/12/25 09:51:41;;;;;;;55.97;23.08;;;9.60;99.90;;;;;;5094316;28;20055;-70
2022/12/25 09:54:18;;;;;;;47.65;21.98;;;9.40;99.90;;;;;;5092554;28;20094;-71
2022/12/25 09:56:44;;;;;;;51.25;21.05;;;9.40;99.90;;;;;;5093929;28;20050;-70
2022/12/25 09:59:26;;;;;;;47.08;19.63;;;9.20;99.90;;;;;;5093715;28;20131;-70
2022/12/25 10:02:17;;;;;;;43.58;18.75;;;11.50;99.90;;;;;;5095222;28;20052;-70
2022/12/25 10:05:06;;;;;;;51.25;20.13;;;9.30;99.90;;;;;;5095420;28;20490;-70
2022/12/25 10:07:58;;;;;;;40.83;18.38;;;9.50;99.90;;;;;;5094632;28;20051;-70
2022/12/25 10:10:42;;;;;;;48.55;19.20;;;9.20;99.90;;;;;;5095330;28;20146;-70
2022/12/25 10:13:26;;;;;;;48.55;19.10;;;9.20;99.90;;;;;;5094949;28;20043;-70
2022/12/25 10:16:16;;;;;;;43.85;19.40;;;9.50;99.90;;;;;;5094591;28;20094;-71
2022/12/25 10:18:51;;;;;;;44.92;19.38;;;9.30;99.90;;;;;;5087227;28;20436;-70
2022/12/25 10:21:17;;;;;;;51.40;18.63;;;9.50;99.90;;;;;;5082856;28;20067;-70
2022/12/25 10:23:55;;;;;;;52.65;18.33;;;9.30;99.90;;;;;;5073793;28;20048;-70
2022/12/25 10:26:24;;;;;;;46.10;18.40;;;9.70;99.90;;;;;;5074548;28;20044;-70
2022/12/25 10:29:13;;;;;;;42.47;19.25;;;9.10;99.90;;;;;;5074877;28;20048;-70
2022/12/25 10:31:43;;;;;;;43.42;17.73;;;9.20;99.90;;;;;;5074809;28;20044;-70
2022/12/25 10:34:11;;;;;;;43.35;17.73;;;9.20;99.90;;;;;;5073010;28;20045;-69
2022/12/25 10:36:36;;;;;;;40.47;17.17;;;9.40;99.90;;;;;;5074798;28;20091;-70
2022/12/25 10:39:02;;;;;;;39.03;17.67;;;9.20;99.90;;;;;;5056704;28;20133;-70
2022/12/25 10:41:37;;;;;;;40.85;17.85;;;9.50;99.90;;;;;;5074262;28;20055;-70
2022/12/25 10:44:14;;;;;;;36.65;16.85;;;9.60;99.90;;;;;;5073487;28;20059;-70
2022/12/25 10:46:40;;;;;;;34.53;17.00;;;9.60;99.90;;;;;;5090016;28;20055;-70
2022/12/25 10:49:14;;;;;;;29.88;14.48;;;9.20;99.90;;;;;;5074491;28;20048;-70
2022/12/25 10:51:41;;;;;;;34.40;15.43;;;9.10;99.90;;;;;;5072843;28;20044;-70
2022/12/25 10:54:30;;;;;;;29.55;14.40;;;9.30;99.90;;;;;;5074025;28;20056;-70
2022/12/25 10:57:06;;;;;;;30.55;14.32;;;9.40;99.90;;;;;;5074441;28;20060;-69
2022/12/25 10:59:42;;;;;;;29.35;13.77;;;9.30;99.90;;;;;;5074411;28;20075;-70
2022/12/25 11:02:23;;;;;;;30.67;13.70;;;9.40;99.90;;;;;;5073387;28;20045;-70
2022/12/25 11:04:51;;;;;;;31.95;13.48;;;9.40;99.90;;;;;;5074136;28;20056;-70
2022/12/25 11:07:16;;;;;;;30.20;13.55;;;9.70;99.90;;;;;;5074303;28;20082;-70
2022/12/25 11:09:57;;;;;;;21.83;13.00;;;9.40;99.90;;;;;;5073238;28;20044;-70
2022/12/25 11:12:44;;;;;;;27.48;12.73;;;9.70;99.90;;;;;;5073035;28;20045;-70
2022/12/25 11:15:38;;;;;;;23.80;12.50;;;9.60;99.90;;;;;;5093484;28;20059;-70
2022/12/25 11:18:30;;;;;;;31.23;12.25;;;9.40;99.90;;;;;;5100859;28;20278;-70
2022/12/25 11:21:14;;;;;;;26.50;12.60;;;9.30;99.90;;;;;;5072279;28;20109;-70
2022/12/25 11:23:45;;;;;;;26.10;12.70;;;9.80;99.90;;;;;;5073759;28;20044;-70
2022/12/25 11:26:11;;;;;;;25.23;12.50;;;9.60;99.90;;;;;;5073932;28;20044;-70
2022/12/25 11:28:40;;;;;;;30.55;12.35;;;9.90;99.90;;;;;;5073820;28;20078;-70
2022/12/25 11:31:18;;;;;;;21.83;12.75;;;9.50;99.90;;;;;;5073844;28;20080;-70
2022/12/25 11:34:30;;;;;;;24.73;11.70;;;9.10;99.90;;;;;;5073677;28;20090;-70
2022/12/25 11:36:57;;;;;;;21.23;11.45;;;9.60;99.90;;;;;;5045748;28;20098;-70
2022/12/25 11:39:27;;;;;;;27.05;11.65;;;9.80;99.90;;;;;;5072267;28;20548;-70
2022/12/25 11:42:14;;;;;;;24.35;11.82;;;9.30;99.90;;;;;;5073562;28;20055;-69
2022/12/25 11:44:48;;;;;;;23.08;12.63;;;9.60;99.90;;;;;;5073520;28;20155;-70
2022/12/25 11:47:24;;;;;;;28.50;12.50;;;9.40;99.90;;;;;;5073501;28;20059;-70
2022/12/25 11:50:12;;;;;;;20.65;11.27;;;9.70;99.90;;;;;;5073403;28;20119;-70
2022/12/25 11:52:39;;;;;;;22.88;11.82;;;9.70;99.90;;;;;;5072923;28;20044;-70
2022/12/25 11:55:14;;;;;;;21.88;11.82;;;9.50;99.90;;;;;;5089131;28;20091;-70
2022/12/25 11:57:41;;;;;;;22.63;12.20;;;9.80;99.90;;;;;;5073229;28;20149;-70
2022/12/25 12:00:13;;;;;;;23.05;11.05;;;9.90;99.90;;;;;;5072055;28;20052;-70
2022/12/25 12:02:42;;;;;;;25.05;11.93;;;9.80;99.90;;;;;;5079117;28;20521;-70
2022/12/25 12:05:15;;;;;;;21.10;11.40;;;9.60;99.90;;;;;;5091489;28;20070;-70
2022/12/25 12:07:53;;;;;;;22.55;11.77;;;9.60;99.90;;;;;;5107608;28;20059;-70
2022/12/25 12:10:31;;;;;;;26.45;12.13;;;9.50;99.90;;;;;;5091955;28;20060;-70
2022/12/25 12:12:56;;;;;;;24.00;12.13;;;9.70;99.90;;;;;;5092446;28;20511;-70
2022/12/25 12:15:47;;;;;;;25.17;11.77;;;9.70;99.90;;;;;;5092458;28;20080;-70
2022/12/25 12:18:29;;;;;;;24.48;11.77;;;9.60;99.90;;;;;;5091614;28;20056;-70
2022/12/25 12:21:05;;;;;;;21.95;11.20;;;9.60;99.90;;;;;;5092297;28;20047;-71
2022/12/25 12:23:54;;;;;;;21.58;11.50;;;9.70;99.90;;;;;;5090656;28;20055;-70
2022/12/25 12:26:26;;;;;;;25.23;11.73;;;9.90;99.90;;;;;;5092179;28;20051;-70
2022/12/25 12:28:56;;;;;;;20.33;11.70;;;9.80;99.90;;;;;;5090072;28;20381;-70
2022/12/25 12:31:23;;;;;;;24.63;11.85;;;9.60;99.90;;;;;;5092289;28;20066;-70
2022/12/25 12:33:55;;;;;;;21.02;12.02;;;10.10;99.90;;;;;;5108006;28;20051;-70
2022/12/25 12:36:25;;;;;;;21.55;11.85;;;9.70;99.90;;;;;;5091857;28;20122;-70
2022/12/25 12:38:54;;;;;;;22.48;12.38;;;9.80;99.90;;;;;;5091300;28;20048;-70
2022/12/25 12:41:21;;;;;;;26.48;12.45;;;9.90;99.90;;;;;;5091723;28;20480;-70
2022/12/25 12:44:02;;;;;;;21.92;11.63;;;10.00;99.90;;;;;;5092463;28;20052;-70
2022/12/25 12:46:38;;;;;;;24.85;12.05;;;9.70;99.90;;;;;;5092584;28;20100;-70
2022/12/25 12:49:23;;;;;;;23.63;11.73;;;9.80;99.90;;;;;;5092496;28;20063;-69
2022/12/25 12:52:01;;;;;;;22.98;11.80;;;10.10;99.90;;;;;;5092113;28;20087;-70
2022/12/25 12:54:27;;;;;;;22.90;11.50;;;10.10;99.90;;;;;;5091813;28;20472;-70
2022/12/25 12:57:00;;;;;;;24.90;12.25;;;9.80;99.90;;;;;;5092033;28;20051;-70
2022/12/25 12:59:39;;;;;;;24.00;10.90;;;9.90;99.90;;;;;;5092414;28;20048;-70
2022/12/25 13:02:26;;;;;;;28.40;11.68;;;9.70;99.90;;;;;;5108367;28;20070;-70
2022/12/25 13:05:15;;;;;;;24.40;11.75;;;10.00;99.90;;;;;;5091049;28;20043;-70
2022/12/25 13:08:04;;;;;;;21.60;12.13;;;9.90;99.90;;;;;;5091244;28;20047;-70
2022/12/25 13:11:00;;;;;;;25.92;12.20;;;9.80;99.90;;;;;;5092297;28;20054;-70
2022/12/25 13:13:34;;;;;;;22.55;11.40;;;9.90;99.90;;;;;;5091994;28;20137;-70
2022/12/25 13:16:00;;;;;;;30.15;12.52;;;9.60;99.90;;;;;;5091529;28;20145;-70
2022/12/25 13:18:26;;;;;;;26.50;13.75;;;9.70;99.90;;;;;;5091332;28;20055;-70
2022/12/25 13:21:02;;;;;;;28.08;12.13;;;9.30;99.90;;;;;;5091892;28;20090;-70
2022/12/25 13:23:33;;;;;;;24.23;11.80;;;10.00;99.90;;;;;;5091024;28;20044;-70
2022/12/25 13:26:03;;;;;;;22.10;11.73;;;10.10;99.90;;;;;;5092067;28;20056;-70
2022/12/25 13:28:34;;;;;;;26.10;12.38;;;9.70;99.90;;;;;;5091947;28;20044;-70
2022/12/25 13:31:06;;;;;;;23.92;12.13;;;9.50;99.90;;;;;;5092028;28;20088;-70
2022/12/25 13:33:33;;;;;;;25.98;11.63;;;9.90;99.90;;;;;;5091632;28;20040;-70
2022/12/25 13:35:58;;;;;;;27.70;14.18;;;9.60;99.90;;;;;;5091305;28;20125;-70
2022/12/25 13:38:27;;;;;;;28.05;13.98;;;9.90;99.90;;;;;;5091821;28;20052;-70
2022/12/25 13:43:42;;;;;;;26.67;11.35;;;10.00;99.90;;;;;;5090827;28;20137;-70
2022/12/25 13:46:11;;;;;;;22.08;11.85;;;9.90;99.90;;;;;;5090420;28;20048;-70
2022/12/25 13:48:37;;;;;;;24.73;11.85;;;9.90;99.90;;;;;;5091579;28;20056;-70
2022/12/25 13:51:02;;;;;;;27.23;12.38;;;9.70;99.90;;;;;;5091785;28;20117;-70
2022/12/25 13:53:28;;;;;;;26.80;12.63;;;9.90;99.90;;;;;;5091699;28;20495;-70
2022/12/25 13:55:54;;;;;;;27.40;12.43;;;10.00;99.90;;;;;;5091703;28;20063;-70
2022/12/25 13:58:29;;;;;;;21.15;11.23;;;9.60;99.90;;;;;;5091470;28;20465;-70
2022/12/25 14:01:00;;;;;;;25.33;11.60;;;9.90;99.90;;;;;;5090490;28;20143;-71
2022/12/25 14:03:44;;;;;;;22.55;11.57;;;9.80;99.90;;;;;;5091466;28;20040;-70
2022/12/25 14:06:30;;;;;;;20.42;11.10;;;9.90;99.90;;;;;;5090459;28;20052;-70
2022/12/25 14:08:57;;;;;;;31.33;12.77;;;9.60;99.90;;;;;;5091598;28;20048;-70
2022/12/25 14:11:25;;;;;;;24.58;12.43;;;9.70;99.90;;;;;;5090505;28;20392;-70
2022/12/25 14:13:58;;;;;;;26.50;11.77;;;10.00;99.90;;;;;;5091527;28;20044;-70
2022/12/25 14:16:25;;;;;;;22.77;12.27;;;9.90;99.90;;;;;;5091540;28;20052;-70
2022/12/25 14:18:54;;;;;;;25.98;13.32;;;9.80;99.90;;;;;;5089913;28;20047;-70
2022/12/25 14:21:33;;;;;;;20.50;11.68;;;9.80;99.90;;;;;;5107478;28;20047;-70
2022/12/25 14:23:59;;;;;;;23.80;11.88;;;9.70;99.90;;;;;;5091524;28;20044;-70
2022/12/25 14:26:28;;;;;;;26.08;12.45;;;9.90;99.90;;;;;;5093106;28;20047;-70
2022/12/25 14:29:08;;;;;;;20.42;11.27;;;9.60;99.90;;;;;;5095162;28;20126;-70
2022/12/25 14:31:37;;;;;;;20.77;10.65;;;9.90;99.90;;;;;;5094846;28;20052;-70
2022/12/25 14:34:09;;;;;;;21.52;10.80;;;10.10;99.90;;;;;;5094759;28;20036;-69